createdAt,value
2023-02-25T00:01:09.364Z,7.71
2023-02-25T00:03:36.599Z,7.65
2023-02-25T00:06:05.145Z,7.62
2023-02-25T00:08:32.443Z,7.62
2023-02-25T00:11:07.153Z,7.56
2023-02-25T00:13:34.222Z,7.56
2023-02-25T00:16:03.769Z,7.60
2023-02-25T00:18:31.106Z,7.64
2023-02-25T00:20:59.062Z,7.65
2023-02-25T00:23:26.338Z,7.68
2023-02-25T00:26:07.032Z,7.75
2023-02-25T00:28:34.628Z,7.73
2023-02-25T00:31:10.785Z,7.77
2023-02-25T00:33:42.117Z,7.76
2023-02-25T00:36:11.911Z,7.73
2023-02-25T00:38:39.600Z,7.72
2023-02-25T00:41:15.178Z,7.63
2023-02-25T00:43:44.985Z,7.60
2023-02-25T00:46:11.687Z,7.58
2023-02-25T00:48:38.934Z,7.58
2023-02-25T00:51:29.623Z,7.58
2023-02-25T00:53:57.369Z,7.58
2023-02-25T00:56:26.066Z,7.58
2023-02-25T00:58:53.975Z,7.50
2023-02-25T01:01:20.553Z,7.49
2023-02-25T01:03:48.428Z,7.45
2023-02-25T01:06:15.218Z,7.38
2023-02-25T01:08:42.450Z,7.34
2023-02-25T01:11:14.063Z,7.29
2023-02-25T01:13:41.055Z,7.19
2023-02-25T01:16:16.284Z,7.16
2023-02-25T01:18:44.002Z,7.16
2023-02-25T01:21:26.563Z,7.14
2023-02-25T01:23:59.222Z,7.15
2023-02-25T01:26:27.847Z,7.15
2023-02-25T01:28:55.856Z,7.15
2023-02-25T01:31:29.614Z,7.10
2023-02-25T01:34:01.487Z,7.12
2023-02-25T01:36:29.859Z,7.22
2023-02-25T01:38:56.524Z,7.28
2023-02-25T01:41:25.093Z,7.28
2023-02-25T01:44:17.164Z,7.27
2023-02-25T01:46:46.147Z,7.28
2023-02-25T01:49:25.330Z,7.32
2023-02-25T01:51:56.388Z,7.33
2023-02-25T01:54:22.941Z,7.30
2023-02-25T01:56:54.277Z,7.30
2023-02-25T01:59:24.637Z,7.33
2023-02-25T02:01:51.778Z,7.31
2023-02-25T02:04:19.893Z,7.28
2023-02-25T02:06:49.320Z,7.23
2023-02-25T02:09:19.621Z,7.17
2023-02-25T02:11:46.250Z,7.10
2023-02-25T02:14:29.402Z,6.99
2023-02-25T02:17:01.559Z,6.93
2023-02-25T02:19:52.232Z,6.88
2023-02-25T02:22:30.994Z,6.87
2023-02-25T02:25:12.878Z,6.88
2023-02-25T02:28:21.108Z,6.91
2023-02-25T02:30:50.419Z,6.88
2023-02-25T02:33:39.346Z,6.81
2023-02-25T02:36:12.693Z,6.79
2023-02-25T02:38:50.365Z,6.73
2023-02-25T02:41:35.465Z,6.66
2023-02-25T02:44:14.151Z,6.60
2023-02-25T02:46:48.733Z,6.55
2023-02-25T02:49:23.707Z,6.51
2023-02-25T02:51:58.825Z,6.43
2023-02-25T02:54:31.312Z,6.35
2023-02-25T02:56:59.989Z,6.32
2023-02-25T02:59:43.177Z,6.31
2023-02-25T03:02:16.876Z,6.29
2023-02-25T03:04:47.579Z,6.31
2023-02-25T03:07:15.770Z,6.34
2023-02-25T03:10:05.000Z,6.37
2023-02-25T03:12:31.661Z,6.36
2023-02-25T03:14:58.241Z,6.34
2023-02-25T03:17:33.140Z,6.33
2023-02-25T03:20:08.106Z,6.33
2023-02-25T03:22:41.499Z,6.29
2023-02-25T03:25:23.796Z,6.26
2023-02-25T03:27:54.996Z,6.27
2023-02-25T03:30:45.732Z,6.30
2023-02-25T03:33:33.421Z,6.43
2023-02-25T03:36:05.714Z,6.45
2023-02-25T03:38:33.643Z,6.45
2023-02-25T03:41:04.146Z,6.44
2023-02-25T03:43:39.375Z,6.39
2023-02-25T03:46:07.098Z,6.35
2023-02-25T03:48:36.957Z,6.31
2023-02-25T03:51:05.538Z,6.29
2023-02-25T03:53:35.271Z,6.28
2023-02-25T03:56:07.933Z,6.27
2023-02-25T03:58:36.235Z,6.28
2023-02-25T04:01:07.699Z,6.27
2023-02-25T04:03:34.266Z,6.29
2023-02-25T04:06:00.838Z,6.30
2023-02-25T04:08:27.539Z,6.30
2023-02-25T04:10:54.088Z,6.30
2023-02-25T04:13:20.931Z,6.29
2023-02-25T04:15:49.577Z,6.34
2023-02-25T04:18:16.741Z,6.33
2023-02-25T04:20:43.331Z,6.33
2023-02-25T04:23:14.880Z,6.33
2023-02-25T04:25:41.704Z,6.30
2023-02-25T04:28:08.379Z,6.31
2023-02-25T04:30:35.018Z,6.30
2023-02-25T04:33:02.367Z,6.28
2023-02-25T04:35:28.912Z,6.27
2023-02-25T04:37:55.479Z,6.28
2023-02-25T04:40:24.119Z,6.27
2023-02-25T04:42:51.182Z,6.28
2023-02-25T04:45:18.032Z,6.30
2023-02-25T04:47:44.661Z,6.28
2023-02-25T04:50:12.303Z,6.27
2023-02-25T04:52:38.952Z,6.27
2023-02-25T04:55:06.020Z,6.27
2023-02-25T04:57:32.572Z,6.30
2023-02-25T04:59:59.122Z,6.56
2023-02-25T05:02:25.659Z,6.78
2023-02-25T05:04:52.275Z,7.01
2023-02-25T05:07:18.902Z,7.13
2023-02-25T05:09:45.469Z,7.25
2023-02-25T05:12:12.132Z,7.37
2023-02-25T05:14:38.776Z,7.52
2023-02-25T05:17:05.376Z,7.62
2023-02-25T05:19:31.956Z,7.65
2023-02-25T05:21:58.507Z,7.65
2023-02-25T05:24:25.106Z,7.70
2023-02-25T05:26:52.182Z,7.71
2023-02-25T05:29:18.879Z,7.66
2023-02-25T05:31:45.716Z,7.64
2023-02-25T05:34:12.466Z,7.59
2023-02-25T05:36:40.549Z,7.53
2023-02-25T05:39:07.174Z,7.50
2023-02-25T05:41:33.732Z,7.48
2023-02-25T05:44:00.266Z,7.46
2023-02-25T05:46:27.443Z,7.40
2023-02-25T05:48:54.454Z,7.35
2023-02-25T05:51:23.461Z,7.34
2023-02-25T05:53:52.081Z,7.31
2023-02-25T05:56:28.366Z,7.33
2023-02-25T05:58:56.696Z,7.42
2023-02-25T06:01:27.727Z,7.39
2023-02-25T06:03:58.418Z,7.42
2023-02-25T06:06:27.817Z,7.35
2023-02-25T06:08:54.434Z,7.34
2023-02-25T06:11:23.904Z,7.34
2023-02-25T06:13:52.834Z,7.41
2023-02-25T06:16:19.757Z,7.38
2023-02-25T06:18:48.224Z,7.36
2023-02-25T06:21:15.643Z,7.29
2023-02-25T06:23:43.655Z,7.19
2023-02-25T06:26:12.865Z,7.09
2023-02-25T06:28:39.712Z,6.94
2023-02-25T06:31:10.981Z,6.85
2023-02-25T06:33:39.251Z,6.79
2023-02-25T06:36:06.830Z,6.71
2023-02-25T06:38:35.028Z,6.70
2023-02-25T06:41:10.025Z,6.62
2023-02-25T06:43:36.851Z,6.57
2023-02-25T06:46:07.845Z,6.53
2023-02-25T06:48:34.458Z,6.51
2023-02-25T06:51:02.011Z,6.47
2023-02-25T06:53:29.687Z,6.42
2023-02-25T06:55:59.008Z,6.39
2023-02-25T06:58:25.586Z,6.33
2023-02-25T07:00:52.225Z,6.28
2023-02-25T07:03:18.892Z,6.28
2023-02-25T07:05:45.504Z,6.25
2023-02-25T07:08:12.137Z,6.27
2023-02-25T07:10:40.568Z,6.25
2023-02-25T07:13:09.232Z,6.17
2023-02-25T07:15:36.103Z,6.16
2023-02-25T07:18:03.716Z,6.12
2023-02-25T07:20:30.659Z,6.10
2023-02-25T07:22:57.266Z,6.08
2023-02-25T07:25:24.446Z,6.08
2023-02-25T07:27:51.167Z,6.04
2023-02-25T07:30:17.928Z,6.09
2023-02-25T07:32:44.679Z,6.13
2023-02-25T07:35:12.608Z,6.16
2023-02-25T07:37:39.941Z,6.18
2023-02-25T07:40:14.344Z,6.24
2023-02-25T07:42:41.664Z,6.27
2023-02-25T07:45:09.917Z,6.30
2023-02-25T07:47:37.770Z,6.26
2023-02-25T07:50:06.081Z,6.20
2023-02-25T07:52:32.800Z,6.14
2023-02-25T07:54:59.402Z,6.08
2023-02-25T07:57:26.122Z,5.99
2023-02-25T07:59:52.687Z,5.94
2023-02-25T08:02:19.361Z,5.94
2023-02-25T08:04:46.014Z,5.92
2023-02-25T08:07:12.834Z,5.93
2023-02-25T08:09:39.502Z,5.94
2023-02-25T08:12:06.151Z,5.95
2023-02-25T08:14:32.702Z,5.96
2023-02-25T08:17:01.911Z,5.98
2023-02-25T08:19:29.159Z,6.00
2023-02-25T08:21:55.765Z,6.00
2023-02-25T08:24:24.211Z,6.02
2023-02-25T08:26:51.296Z,5.99
2023-02-25T08:29:18.264Z,6.01
2023-02-25T08:31:46.949Z,5.97
2023-02-25T08:34:13.783Z,5.94
2023-02-25T08:36:40.394Z,5.93
2023-02-25T08:39:07.054Z,5.92
2023-02-25T08:41:33.689Z,5.90
2023-02-25T08:44:01.237Z,5.88
2023-02-25T08:46:30.250Z,5.90
2023-02-25T08:48:57.667Z,5.90
2023-02-25T08:51:34.312Z,5.91
2023-02-25T08:54:11.949Z,5.89
2023-02-25T08:56:44.366Z,5.90
2023-02-25T08:59:15.294Z,5.90
2023-02-25T09:01:45.279Z,5.88
2023-02-25T09:04:17.554Z,5.95
2023-02-25T09:06:47.387Z,6.00
2023-02-25T09:09:18.247Z,6.02
2023-02-25T09:11:46.933Z,6.03
2023-02-25T09:14:14.216Z,6.04
2023-02-25T09:16:41.067Z,6.05
2023-02-25T09:19:08.043Z,6.04
2023-02-25T09:21:36.185Z,5.99
2023-02-25T09:24:02.914Z,6.04
2023-02-25T09:26:29.460Z,6.03
2023-02-25T09:28:56.045Z,6.02
2023-02-25T09:31:23.209Z,6.01
2023-02-25T09:33:49.953Z,6.01
2023-02-25T09:36:19.842Z,6.00
2023-02-25T09:38:48.837Z,6.03
2023-02-25T09:41:32.612Z,6.04
2023-02-25T09:44:15.626Z,6.04
2023-02-25T09:46:56.012Z,6.08
2023-02-25T09:49:44.090Z,6.09
2023-02-25T09:52:19.540Z,6.04
2023-02-25T09:54:49.010Z,6.09
2023-02-25T09:57:21.621Z,6.17
2023-02-25T09:59:50.080Z,6.23
2023-02-25T10:02:27.951Z,6.30
2023-02-25T10:05:21.655Z,6.44
2023-02-25T10:08:18.944Z,6.60
2023-02-25T10:10:59.408Z,6.87
2023-02-25T10:13:41.918Z,7.20
2023-02-25T10:16:36.256Z,7.45
2023-02-25T10:19:36.477Z,7.42
2023-02-25T10:22:21.800Z,7.28
2023-02-25T10:24:50.392Z,7.18
2023-02-25T10:27:36.828Z,7.10
2023-02-25T10:30:33.040Z,7.04
2023-02-25T10:33:05.752Z,6.94
2023-02-25T10:35:39.249Z,6.89
2023-02-25T10:38:05.929Z,6.89
2023-02-25T10:40:32.547Z,6.89
2023-02-25T10:43:03.054Z,7.07
2023-02-25T10:45:31.662Z,7.56
2023-02-25T10:48:17.601Z,7.86
2023-02-25T10:51:13.941Z,8.18
2023-02-25T10:54:01.141Z,9.09
2023-02-25T10:56:33.466Z,9.97
2023-02-25T10:59:22.758Z,10.35
2023-02-25T11:01:49.905Z,10.19
2023-02-25T11:04:20.286Z,10.28
2023-02-25T11:06:47.754Z,10.58
2023-02-25T11:09:20.268Z,10.93
2023-02-25T11:12:08.583Z,11.23
2023-02-25T11:14:40.062Z,12.50
2023-02-25T11:17:12.152Z,13.09
2023-02-25T11:19:42.129Z,13.47
2023-02-25T11:22:37.436Z,13.84
2023-02-25T11:25:07.250Z,15.01
2023-02-25T11:27:39.315Z,16.14
2023-02-25T11:30:24.812Z,16.62
2023-02-25T11:32:57.935Z,16.33
2023-02-25T11:35:31.410Z,16.54
2023-02-25T11:37:59.300Z,17.13
2023-02-25T11:40:32.512Z,17.96
2023-02-25T11:43:06.374Z,17.64
2023-02-25T11:45:46.045Z,17.08
2023-02-25T11:48:48.531Z,15.88
2023-02-25T11:51:48.189Z,15.46
2023-02-25T11:54:36.064Z,14.65
2023-02-25T11:57:30.590Z,13.76
2023-02-25T12:00:19.357Z,13.00
2023-02-25T12:03:30.692Z,12.84
2023-02-25T12:06:24.298Z,12.82
2023-02-25T12:09:15.224Z,13.13
2023-02-25T12:12:06.545Z,13.05
2023-02-25T12:14:41.919Z,14.19
2023-02-25T12:17:29.628Z,14.45
2023-02-25T12:20:26.931Z,13.99
2023-02-25T12:23:21.452Z,14.05
2023-02-25T12:26:01.233Z,14.28
2023-02-25T12:29:01.376Z,15.42
2023-02-25T12:31:46.785Z,16.73
2023-02-25T12:35:10.628Z,17.87
2023-02-25T12:37:50.100Z,18.99
2023-02-25T12:40:22.264Z,18.90
2023-02-25T12:43:03.863Z,19.78
2023-02-25T12:45:51.959Z,20.48
2023-02-25T12:48:34.130Z,21.01
2023-02-25T12:51:15.680Z,21.45
2023-02-25T12:54:03.242Z,21.15
2023-02-25T12:57:07.348Z,20.72
2023-02-25T12:59:51.863Z,20.30
2023-02-25T13:02:28.995Z,20.63
2023-02-25T13:05:01.524Z,21.11
2023-02-25T13:07:40.313Z,21.24
2023-02-25T13:10:38.773Z,21.50
2023-02-25T13:13:24.069Z,21.73
2023-02-25T13:16:18.654Z,21.65
2023-02-25T13:19:34.982Z,22.04
2023-02-25T13:22:27.419Z,21.88
2023-02-25T13:25:12.493Z,22.23
2023-02-25T13:27:57.317Z,21.95
2023-02-25T13:30:34.344Z,21.50
2023-02-25T13:33:14.168Z,22.08
2023-02-25T13:36:08.706Z,22.35
2023-02-25T13:38:47.320Z,22.32
2023-02-25T13:41:33.155Z,22.29
2023-02-25T13:44:08.577Z,21.57
2023-02-25T13:46:53.295Z,21.37
2023-02-25T13:49:35.009Z,21.18
2023-02-25T13:52:59.935Z,20.93
2023-02-25T13:55:40.216Z,20.96
2023-02-25T13:58:36.140Z,21.11
2023-02-25T14:01:22.922Z,21.40
2023-02-25T14:04:05.944Z,21.17
2023-02-25T14:06:47.746Z,20.83
2023-02-25T14:09:34.528Z,20.67
2023-02-25T14:12:14.867Z,20.65
2023-02-25T14:15:18.167Z,20.32
2023-02-25T14:18:08.822Z,20.80
2023-02-25T14:21:03.896Z,20.90
2023-02-25T14:23:55.981Z,21.03
2023-02-25T14:26:33.598Z,20.89
2023-02-25T14:29:26.731Z,19.66
2023-02-25T14:32:01.664Z,19.17
2023-02-25T14:34:59.511Z,18.87
2023-02-25T14:37:31.763Z,18.68
2023-02-25T14:40:13.613Z,18.48
2023-02-25T14:43:03.375Z,17.92
2023-02-25T14:45:51.081Z,17.52
2023-02-25T14:48:26.211Z,17.18
2023-02-25T14:51:11.671Z,17.00
2023-02-25T14:54:25.569Z,16.48
2023-02-25T14:56:54.771Z,16.54
2023-02-25T14:59:45.832Z,16.69
2023-02-25T15:02:39.917Z,16.64
2023-02-25T15:05:24.731Z,16.42
2023-02-25T15:08:08.064Z,16.18
2023-02-25T15:10:53.445Z,15.52
2023-02-25T15:13:47.323Z,14.60
2023-02-25T15:16:22.967Z,13.95
2023-02-25T15:19:14.290Z,13.54
2023-02-25T15:21:44.962Z,13.08
2023-02-25T15:24:39.407Z,12.78
2023-02-25T15:27:35.215Z,12.61
2023-02-25T15:30:11.919Z,12.50
2023-02-25T15:32:59.627Z,12.33
2023-02-25T15:35:35.250Z,12.17
2023-02-25T15:38:08.989Z,12.01
2023-02-25T15:40:35.492Z,11.78
2023-02-25T15:43:26.393Z,11.54
2023-02-25T15:46:08.127Z,11.33
2023-02-25T15:48:38.399Z,11.16
2023-02-25T15:51:10.713Z,10.93
2023-02-25T15:53:41.074Z,10.76
2023-02-25T15:56:08.533Z,10.59
2023-02-25T15:58:35.054Z,10.49
2023-02-25T16:01:05.167Z,10.35
2023-02-25T16:03:31.757Z,10.17
2023-02-25T16:06:22.232Z,10.01
2023-02-25T16:09:01.190Z,9.85
2023-02-25T16:11:44.285Z,9.80
2023-02-25T16:14:28.582Z,9.61
2023-02-25T16:17:09.189Z,9.49
2023-02-25T16:19:39.414Z,9.33
2023-02-25T16:22:38.886Z,9.09
2023-02-25T16:25:18.877Z,8.94
2023-02-25T16:27:54.380Z,8.85
2023-02-25T16:30:44.748Z,8.76
2023-02-25T16:33:35.373Z,8.68
2023-02-25T16:36:29.584Z,8.68
2023-02-25T16:39:14.347Z,8.56
2023-02-25T16:41:41.256Z,8.42
2023-02-25T16:44:08.540Z,8.30
2023-02-25T16:46:39.313Z,8.27
2023-02-25T16:49:18.114Z,8.24
2023-02-25T16:51:45.342Z,8.07
2023-02-25T16:54:24.813Z,8.02
2023-02-25T16:56:58.055Z,8.05
2023-02-25T16:59:24.831Z,8.01
2023-02-25T17:02:02.577Z,7.96
2023-02-25T17:04:33.128Z,7.81
2023-02-25T17:07:13.605Z,7.71
2023-02-25T17:09:56.724Z,7.58
2023-02-25T17:12:40.827Z,7.47
2023-02-25T17:15:19.321Z,7.40
2023-02-25T17:17:48.869Z,7.34
2023-02-25T17:20:22.886Z,7.28
2023-02-25T17:22:50.386Z,7.27
2023-02-25T17:25:18.314Z,7.28
2023-02-25T17:27:48.931Z,7.22
2023-02-25T17:30:34.859Z,7.16
2023-02-25T17:33:01.959Z,7.16
2023-02-25T17:35:29.348Z,7.14
2023-02-25T17:37:57.192Z,7.14
2023-02-25T17:40:28.912Z,7.08
2023-02-25T17:43:17.946Z,6.97
2023-02-25T17:45:51.763Z,6.94
2023-02-25T17:48:22.431Z,7.03
2023-02-25T17:51:10.867Z,7.02
2023-02-25T17:54:18.270Z,6.97
2023-02-25T17:56:54.596Z,6.98
2023-02-25T17:59:41.640Z,6.87
2023-02-25T18:02:37.912Z,6.78
2023-02-25T18:05:11.128Z,6.71
2023-02-25T18:07:58.589Z,6.70
2023-02-25T18:10:31.414Z,6.75
2023-02-25T18:13:03.379Z,6.75
2023-02-25T18:15:33.222Z,6.74
2023-02-25T18:18:07.348Z,6.67
2023-02-25T18:20:42.304Z,6.61
2023-02-25T18:23:21.129Z,6.56
2023-02-25T18:26:09.268Z,6.53
2023-02-25T18:28:35.975Z,6.52
2023-02-25T18:31:02.664Z,6.55
2023-02-25T18:33:29.270Z,6.49
2023-02-25T18:35:57.537Z,6.47
2023-02-25T18:38:26.530Z,6.40
2023-02-25T18:40:54.344Z,6.37
2023-02-25T18:43:28.925Z,6.28
2023-02-25T18:45:55.448Z,6.22
2023-02-25T18:48:21.969Z,6.14
2023-02-25T18:50:48.697Z,6.15
2023-02-25T18:53:18.136Z,6.12
2023-02-25T18:55:44.703Z,6.11
2023-02-25T18:58:16.572Z,6.11
2023-02-25T19:00:46.174Z,6.09
2023-02-25T19:03:21.932Z,6.09
2023-02-25T19:05:48.537Z,6.07
2023-02-25T19:08:17.533Z,6.03
2023-02-25T19:10:44.591Z,6.15
2023-02-25T19:13:24.976Z,6.12
2023-02-25T19:15:51.584Z,6.19
2023-02-25T19:18:18.392Z,6.17
2023-02-25T19:20:45.095Z,6.12
2023-02-25T19:23:13.890Z,6.07
2023-02-25T19:25:41.855Z,6.10
2023-02-25T19:28:08.980Z,6.11
2023-02-25T19:30:39.824Z,6.09
2023-02-25T19:33:08.228Z,6.03
2023-02-25T19:35:37.444Z,5.99
2023-02-25T19:38:05.998Z,5.98
2023-02-25T19:40:33.350Z,5.83
2023-02-25T19:42:59.925Z,5.82
2023-02-25T19:45:27.635Z,5.74
2023-02-25T19:47:55.122Z,5.74
2023-02-25T19:50:24.790Z,5.75
2023-02-25T19:52:53.319Z,5.71
2023-02-25T19:55:20.365Z,5.66
2023-02-25T19:57:47.273Z,5.63
2023-02-25T20:00:19.892Z,5.59
2023-02-25T20:02:46.886Z,5.58
2023-02-25T20:05:14.619Z,5.56
2023-02-25T20:07:42.186Z,5.54
2023-02-25T20:10:11.054Z,5.54
2023-02-25T20:12:39.323Z,5.52
2023-02-25T20:15:07.277Z,5.44
2023-02-25T20:17:36.756Z,5.42
2023-02-25T20:20:04.311Z,5.45
2023-02-25T20:22:31.007Z,5.39
2023-02-25T20:24:57.571Z,5.31
2023-02-25T20:27:24.436Z,5.23
2023-02-25T20:29:50.974Z,5.19
2023-02-25T20:32:17.792Z,5.14
2023-02-25T20:34:44.581Z,5.06
2023-02-25T20:37:23.240Z,5.02
2023-02-25T20:39:55.107Z,4.94
2023-02-25T20:42:24.449Z,4.89
2023-02-25T20:44:52.319Z,4.89
2023-02-25T20:47:27.240Z,4.90
2023-02-25T20:49:55.411Z,4.88
2023-02-25T20:52:22.544Z,4.88
2023-02-25T20:54:52.515Z,4.87
2023-02-25T20:57:21.307Z,4.86
2023-02-25T20:59:48.613Z,4.78
2023-02-25T21:02:16.780Z,4.68
2023-02-25T21:04:44.232Z,4.66
2023-02-25T21:07:11.151Z,4.60
2023-02-25T21:09:37.760Z,4.59
2023-02-25T21:12:04.979Z,4.56
2023-02-25T21:14:31.563Z,4.48
2023-02-25T21:16:58.112Z,4.46
2023-02-25T21:19:28.124Z,4.44
2023-02-25T21:21:56.149Z,4.43
2023-02-25T21:24:23.048Z,4.40
2023-02-25T21:26:49.780Z,4.40
2023-02-25T21:29:16.544Z,4.34
2023-02-25T21:31:44.046Z,4.36
2023-02-25T21:34:13.085Z,4.30
2023-02-25T21:36:41.032Z,4.32
2023-02-25T21:39:09.359Z,4.30
2023-02-25T21:41:38.281Z,4.29
2023-02-25T21:44:05.076Z,4.30
2023-02-25T21:46:31.753Z,4.27
2023-02-25T21:48:59.560Z,4.24
2023-02-25T21:51:28.302Z,4.20
2023-02-25T21:54:00.332Z,4.23
2023-02-25T21:56:28.128Z,4.29
2023-02-25T21:58:56.893Z,4.39
2023-02-25T22:01:26.175Z,4.38
2023-02-25T22:03:53.244Z,4.36
2023-02-25T22:06:23.725Z,4.32
2023-02-25T22:08:50.976Z,4.40
2023-02-25T22:11:21.083Z,4.37
2023-02-25T22:13:48.419Z,4.34
2023-02-25T22:16:15.727Z,4.46
2023-02-25T22:18:42.961Z,4.49
2023-02-25T22:21:16.772Z,4.53
2023-02-25T22:23:43.897Z,4.53
2023-02-25T22:26:13.244Z,4.55
2023-02-25T22:28:42.977Z,4.54
2023-02-25T22:31:12.138Z,4.55
2023-02-25T22:33:39.774Z,4.54
2023-02-25T22:36:07.885Z,4.48
2023-02-25T22:38:40.747Z,4.51
2023-02-25T22:41:13.101Z,4.48
2023-02-25T22:43:39.967Z,4.43
2023-02-25T22:46:13.010Z,4.48
2023-02-25T22:48:41.024Z,4.49
2023-02-25T22:51:09.431Z,4.43
2023-02-25T22:53:37.545Z,4.45
2023-02-25T22:56:06.843Z,4.44
2023-02-25T22:58:33.674Z,4.38
2023-02-25T23:01:00.425Z,4.33
2023-02-25T23:03:27.014Z,4.28
2023-02-25T23:05:54.751Z,4.28
2023-02-25T23:08:22.826Z,4.29
2023-02-25T23:10:49.853Z,4.26
2023-02-25T23:13:16.559Z,4.20
2023-02-25T23:15:47.466Z,4.18
2023-02-25T23:18:15.394Z,4.18
2023-02-25T23:20:42.584Z,4.18
2023-02-25T23:23:09.634Z,4.12
2023-02-25T23:25:39.449Z,4.12
2023-02-25T23:28:07.860Z,4.10
2023-02-25T23:30:37.864Z,4.14
2023-02-25T23:33:05.163Z,4.12
2023-02-25T23:35:32.823Z,4.11
2023-02-25T23:38:01.278Z,4.03
2023-02-25T23:40:28.943Z,4.02
2023-02-25T23:42:56.097Z,3.96
2023-02-25T23:45:22.995Z,3.94
2023-02-25T23:47:49.707Z,3.88
2023-02-25T23:50:17.719Z,3.86
2023-02-25T23:52:46.241Z,3.89
2023-02-25T23:55:15.229Z,3.85
2023-02-25T23:57:42.112Z,3.88
